sensor_id;sensor_type;location;lat;lon;timestamp;P1;durP1;ratioP1;P2;durP2;ratioP2
51252;SDS011;38936;47.808;19.936;2022-10-15T00:02:05;20.90;;;13.13;;
51252;SDS011;38936;47.808;19.936;2022-10-15T00:04:31;25.95;;;15.10;;
51252;SDS011;38936;47.808;19.936;2022-10-15T00:06:57;23.58;;;13.48;;
51252;SDS011;38936;47.808;19.936;2022-10-15T00:11:49;23.38;;;13.57;;
51252;SDS011;38936;47.808;19.936;2022-10-15T00:16:40;33.30;;;14.10;;
51252;SDS011;38936;47.808;19.936;2022-10-15T00:21:31;24.25;;;13.18;;
51252;SDS011;38936;47.808;19.936;2022-10-15T00:26:23;20.63;;;12.48;;
51252;SDS011;38936;47.808;19.936;2022-10-15T00:28:51;25.85;;;13.98;;
51252;SDS011;38936;47.808;19.936;2022-10-15T00:31:19;24.90;;;14.93;;
51252;SDS011;38936;47.808;19.936;2022-10-15T00:33:47;24.13;;;15.00;;
51252;SDS011;38936;47.808;19.936;2022-10-15T00:36:15;22.77;;;14.68;;
51252;SDS011;38936;47.808;19.936;2022-10-15T00:38:42;26.27;;;14.43;;
51252;SDS011;38936;47.808;19.936;2022-10-15T00:43:39;24.23;;;14.55;;
51252;SDS011;38936;47.808;19.936;2022-10-15T00:46:30;19.10;;;12.65;;
51252;SDS011;38936;47.808;19.936;2022-10-15T00:49:11;21.42;;;14.27;;
51252;SDS011;38936;47.808;19.936;2022-10-15T00:51:46;24.42;;;13.57;;
51252;SDS011;38936;47.808;19.936;2022-10-15T00:54:16;18.13;;;12.65;;
51252;SDS011;38936;47.808;19.936;2022-10-15T00:56:43;23.33;;;12.88;;
51252;SDS011;38936;47.808;19.936;2022-10-15T00:59:10;20.17;;;14.43;;
51252;SDS011;38936;47.808;19.936;2022-10-15T01:01:37;21.45;;;14.93;;
51252;SDS011;38936;47.808;19.936;2022-10-15T01:06:30;23.43;;;15.23;;
51252;SDS011;38936;47.808;19.936;2022-10-15T01:14:25;18.88;;;13.48;;
51252;SDS011;38936;47.808;19.936;2022-10-15T01:17:19;27.05;;;14.27;;
51252;SDS011;38936;47.808;19.936;2022-10-15T01:22:46;20.38;;;14.52;;
51252;SDS011;38936;47.808;19.936;2022-10-15T01:28:22;21.55;;;14.65;;
51252;SDS011;38936;47.808;19.936;2022-10-15T01:31:01;26.67;;;15.65;;
51252;SDS011;38936;47.808;19.936;2022-10-15T01:34:01;23.63;;;15.93;;
51252;SDS011;38936;47.808;19.936;2022-10-15T01:36:38;26.17;;;15.38;;
51252;SDS011;38936;47.808;19.936;2022-10-15T01:39:44;28.73;;;16.02;;
51252;SDS011;38936;47.808;19.936;2022-10-15T01:42:45;21.73;;;13.93;;
51252;SDS011;38936;47.808;19.936;2022-10-15T01:45:22;32.90;;;16.23;;
51252;SDS011;38936;47.808;19.936;2022-10-15T01:47:54;34.50;;;16.70;;
51252;SDS011;38936;47.808;19.936;2022-10-15T01:50:24;23.42;;;15.27;;
51252;SDS011;38936;47.808;19.936;2022-10-15T01:52:52;37.88;;;17.15;;
51252;SDS011;38936;47.808;19.936;2022-10-15T01:55:20;27.95;;;15.65;;
51252;SDS011;38936;47.808;19.936;2022-10-15T01:57:47;31.92;;;15.55;;
51252;SDS011;38936;47.808;19.936;2022-10-15T02:00:14;23.77;;;15.15;;
51252;SDS011;38936;47.808;19.936;2022-10-15T02:02:40;26.13;;;15.23;;
51252;SDS011;38936;47.808;19.936;2022-10-15T02:21:05;30.08;;;15.20;;
51252;SDS011;38936;47.808;19.936;2022-10-15T02:23:40;27.30;;;15.45;;
51252;SDS011;38936;47.808;19.936;2022-10-15T02:26:24;25.67;;;15.77;;
51252;SDS011;38936;47.808;19.936;2022-10-15T02:28:53;29.17;;;17.27;;
51252;SDS011;38936;47.808;19.936;2022-10-15T02:31:22;31.23;;;16.30;;
51252;SDS011;38936;47.808;19.936;2022-10-15T02:33:50;33.35;;;17.73;;
51252;SDS011;38936;47.808;19.936;2022-10-15T02:36:18;24.25;;;15.52;;
51252;SDS011;38936;47.808;19.936;2022-10-15T02:41:11;25.48;;;16.65;;
51252;SDS011;38936;47.808;19.936;2022-10-15T02:43:38;29.27;;;17.65;;
51252;SDS011;38936;47.808;19.936;2022-10-15T02:46:04;21.17;;;14.60;;
51252;SDS011;38936;47.808;19.936;2022-10-15T02:48:34;26.95;;;14.70;;
51252;SDS011;38936;47.808;19.936;2022-10-15T02:53:25;23.85;;;16.90;;
51252;SDS011;38936;47.808;19.936;2022-10-15T02:58:16;26.17;;;14.82;;
51252;SDS011;38936;47.808;19.936;2022-10-15T03:03:07;26.08;;;16.30;;
51252;SDS011;38936;47.808;19.936;2022-10-15T03:07:58;24.02;;;15.27;;
51252;SDS011;38936;47.808;19.936;2022-10-15T03:12:50;23.40;;;15.50;;
51252;SDS011;38936;47.808;19.936;2022-10-15T03:17:41;27.83;;;17.20;;
51252;SDS011;38936;47.808;19.936;2022-10-15T03:22:32;23.35;;;15.85;;
51252;SDS011;38936;47.808;19.936;2022-10-15T03:27:23;24.52;;;15.63;;
51252;SDS011;38936;47.808;19.936;2022-10-15T03:32:14;31.23;;;17.77;;
51252;SDS011;38936;47.808;19.936;2022-10-15T03:37:06;27.33;;;15.43;;
51252;SDS011;38936;47.808;19.936;2022-10-15T03:41:57;29.35;;;16.27;;
51252;SDS011;38936;47.808;19.936;2022-10-15T03:46:49;28.15;;;18.85;;
51252;SDS011;38936;47.808;19.936;2022-10-15T03:51:41;28.23;;;18.50;;
51252;SDS011;38936;47.808;19.936;2022-10-15T03:56:32;26.20;;;17.50;;
51252;SDS011;38936;47.808;19.936;2022-10-15T04:01:23;32.83;;;19.88;;
51252;SDS011;38936;47.808;19.936;2022-10-15T04:06:17;26.85;;;18.70;;
51252;SDS011;38936;47.808;19.936;2022-10-15T04:11:08;39.88;;;20.73;;
51252;SDS011;38936;47.808;19.936;2022-10-15T04:15:59;34.78;;;22.95;;
51252;SDS011;38936;47.808;19.936;2022-10-15T04:18:29;38.25;;;23.30;;
51252;SDS011;38936;47.808;19.936;2022-10-15T04:23:23;32.40;;;20.88;;
51252;SDS011;38936;47.808;19.936;2022-10-15T04:28:14;27.67;;;19.85;;
51252;SDS011;38936;47.808;19.936;2022-10-15T04:33:05;31.60;;;20.95;;
51252;SDS011;38936;47.808;19.936;2022-10-15T04:37:59;27.00;;;18.52;;
51252;SDS011;38936;47.808;19.936;2022-10-15T04:40:25;33.83;;;20.23;;
51252;SDS011;38936;47.808;19.936;2022-10-15T04:42:51;30.55;;;20.52;;
51252;SDS011;38936;47.808;19.936;2022-10-15T04:47:42;31.20;;;20.42;;
51252;SDS011;38936;47.808;19.936;2022-10-15T04:50:08;39.92;;;20.80;;
51252;SDS011;38936;47.808;19.936;2022-10-15T04:55:00;32.88;;;20.42;;
51252;SDS011;38936;47.808;19.936;2022-10-15T04:57:27;27.63;;;20.45;;
51252;SDS011;38936;47.808;19.936;2022-10-15T05:02:18;30.52;;;18.17;;
51252;SDS011;38936;47.808;19.936;2022-10-15T05:07:09;32.38;;;18.85;;
51252;SDS011;38936;47.808;19.936;2022-10-15T05:12:01;33.00;;;19.83;;
51252;SDS011;38936;47.808;19.936;2022-10-15T05:16:52;29.15;;;18.75;;
51252;SDS011;38936;47.808;19.936;2022-10-15T05:21:43;33.72;;;20.73;;
51252;SDS011;38936;47.808;19.936;2022-10-15T05:26:34;35.83;;;21.27;;
51252;SDS011;38936;47.808;19.936;2022-10-15T05:31:26;48.00;;;24.50;;
51252;SDS011;38936;47.808;19.936;2022-10-15T05:33:54;41.88;;;23.13;;
51252;SDS011;38936;47.808;19.936;2022-10-15T05:38:56;37.08;;;22.85;;
51252;SDS011;38936;47.808;19.936;2022-10-15T05:41:27;33.85;;;21.55;;
51252;SDS011;38936;47.808;19.936;2022-10-15T05:43:53;32.95;;;21.48;;
51252;SDS011;38936;47.808;19.936;2022-10-15T05:46:21;31.20;;;20.98;;
51252;SDS011;38936;47.808;19.936;2022-10-15T05:48:47;41.25;;;23.60;;
51252;SDS011;38936;47.808;19.936;2022-10-15T05:51:14;31.05;;;21.02;;
51252;SDS011;38936;47.808;19.936;2022-10-15T05:53:40;42.85;;;27.83;;
51252;SDS011;38936;47.808;19.936;2022-10-15T05:56:07;38.00;;;23.83;;
51252;SDS011;38936;47.808;19.936;2022-10-15T05:58:34;37.20;;;18.75;;
51252;SDS011;38936;47.808;19.936;2022-10-15T06:01:01;29.13;;;18.92;;
51252;SDS011;38936;47.808;19.936;2022-10-15T06:03:28;25.40;;;16.70;;
51252;SDS011;38936;47.808;19.936;2022-10-15T06:08:19;29.88;;;16.20;;
51252;SDS011;38936;47.808;19.936;2022-10-15T06:10:46;24.40;;;15.13;;
51252;SDS011;38936;47.808;19.936;2022-10-15T06:13:13;25.25;;;15.85;;
51252;SDS011;38936;47.808;19.936;2022-10-15T06:15:43;30.70;;;15.38;;
51252;SDS011;38936;47.808;19.936;2022-10-15T06:18:12;25.48;;;14.38;;
51252;SDS011;38936;47.808;19.936;2022-10-15T06:20:40;25.63;;;13.60;;
51252;SDS011;38936;47.808;19.936;2022-10-15T06:23:07;22.88;;;14.95;;
51252;SDS011;38936;47.808;19.936;2022-10-15T06:25:34;15.63;;;11.90;;
51252;SDS011;38936;47.808;19.936;2022-10-15T06:30:26;22.03;;;15.17;;
51252;SDS011;38936;47.808;19.936;2022-10-15T06:32:52;24.50;;;14.60;;
51252;SDS011;38936;47.808;19.936;2022-10-15T06:37:44;30.20;;;14.70;;
51252;SDS011;38936;47.808;19.936;2022-10-15T06:42:36;28.05;;;16.88;;
51252;SDS011;38936;47.808;19.936;2022-10-15T06:47:27;26.40;;;15.45;;
51252;SDS011;38936;47.808;19.936;2022-10-15T06:52:19;19.80;;;12.63;;
51252;SDS011;38936;47.808;19.936;2022-10-15T06:54:44;26.52;;;14.63;;
51252;SDS011;38936;47.808;19.936;2022-10-15T06:59:36;31.23;;;14.80;;
51252;SDS011;38936;47.808;19.936;2022-10-15T07:04:27;29.67;;;13.60;;
51252;SDS011;38936;47.808;19.936;2022-10-15T07:09:18;22.70;;;14.18;;
51252;SDS011;38936;47.808;19.936;2022-10-15T07:11:44;22.83;;;12.63;;
51252;SDS011;38936;47.808;19.936;2022-10-15T07:14:10;28.00;;;13.82;;
51252;SDS011;38936;47.808;19.936;2022-10-15T07:16:36;17.13;;;12.07;;
51252;SDS011;38936;47.808;19.936;2022-10-15T07:19:03;18.95;;;10.85;;
51252;SDS011;38936;47.808;19.936;2022-10-15T07:21:29;21.50;;;10.82;;
51252;SDS011;38936;47.808;19.936;2022-10-15T07:23:54;18.45;;;10.15;;
51252;SDS011;38936;47.808;19.936;2022-10-15T07:26:20;21.77;;;11.65;;
51252;SDS011;38936;47.808;19.936;2022-10-15T07:28:45;16.45;;;10.63;;
51252;SDS011;38936;47.808;19.936;2022-10-15T07:31:11;15.90;;;10.88;;
51252;SDS011;38936;47.808;19.936;2022-10-15T07:33:37;17.50;;;10.50;;
51252;SDS011;38936;47.808;19.936;2022-10-15T07:36:03;17.17;;;10.07;;
51252;SDS011;38936;47.808;19.936;2022-10-15T07:38:30;13.07;;;9.88;;
51252;SDS011;38936;47.808;19.936;2022-10-15T07:40:57;15.13;;;10.48;;
51252;SDS011;38936;47.808;19.936;2022-10-15T07:43:27;18.75;;;11.00;;
51252;SDS011;38936;47.808;19.936;2022-10-15T07:45:53;30.23;;;12.63;;
51252;SDS011;38936;47.808;19.936;2022-10-15T07:48:19;20.67;;;11.93;;
51252;SDS011;38936;47.808;19.936;2022-10-15T07:50:44;16.65;;;10.25;;
51252;SDS011;38936;47.808;19.936;2022-10-15T07:53:10;21.58;;;11.32;;
51252;SDS011;38936;47.808;19.936;2022-10-15T07:55:36;27.40;;;14.20;;
51252;SDS011;38936;47.808;19.936;2022-10-15T07:58:02;23.60;;;13.10;;
51252;SDS011;38936;47.808;19.936;2022-10-15T08:00:30;16.60;;;11.23;;
51252;SDS011;38936;47.808;19.936;2022-10-15T08:02:56;19.23;;;9.95;;
51252;SDS011;38936;47.808;19.936;2022-10-15T08:05:22;24.10;;;9.98;;
51252;SDS011;38936;47.808;19.936;2022-10-15T08:07:48;23.73;;;9.55;;
51252;SDS011;38936;47.808;19.936;2022-10-15T08:10:14;16.45;;;9.82;;
51252;SDS011;38936;47.808;19.936;2022-10-15T08:12:40;17.23;;;9.35;;
51252;SDS011;38936;47.808;19.936;2022-10-15T08:15:06;18.65;;;11.30;;
51252;SDS011;38936;47.808;19.936;2022-10-15T08:17:31;22.08;;;10.88;;
51252;SDS011;38936;47.808;19.936;2022-10-15T08:19:57;18.50;;;10.38;;
51252;SDS011;38936;47.808;19.936;2022-10-15T08:22:23;18.40;;;10.18;;
51252;SDS011;38936;47.808;19.936;2022-10-15T08:24:48;18.50;;;11.32;;
51252;SDS011;38936;47.808;19.936;2022-10-15T08:27:14;19.52;;;10.68;;
51252;SDS011;38936;47.808;19.936;2022-10-15T08:29:39;23.20;;;9.60;;
51252;SDS011;38936;47.808;19.936;2022-10-15T08:32:05;20.88;;;10.82;;
51252;SDS011;38936;47.808;19.936;2022-10-15T08:34:31;16.88;;;9.75;;
51252;SDS011;38936;47.808;19.936;2022-10-15T08:36:56;16.58;;;9.55;;
51252;SDS011;38936;47.808;19.936;2022-10-15T08:39:22;21.88;;;10.07;;
51252;SDS011;38936;47.808;19.936;2022-10-15T08:41:48;21.30;;;10.43;;
51252;SDS011;38936;47.808;19.936;2022-10-15T08:44:22;17.10;;;10.93;;
51252;SDS011;38936;47.808;19.936;2022-10-15T08:47:07;14.70;;;10.40;;
51252;SDS011;38936;47.808;19.936;2022-10-15T08:49:58;14.68;;;8.85;;
51252;SDS011;38936;47.808;19.936;2022-10-15T08:55:13;17.15;;;9.27;;
51252;SDS011;38936;47.808;19.936;2022-10-15T08:57:57;17.13;;;10.10;;
51252;SDS011;38936;47.808;19.936;2022-10-15T09:00:53;15.20;;;9.27;;
51252;SDS011;38936;47.808;19.936;2022-10-15T09:06:34;14.60;;;9.73;;
51252;SDS011;38936;47.808;19.936;2022-10-15T09:11:55;16.35;;;8.90;;
51252;SDS011;38936;47.808;19.936;2022-10-15T09:14:27;15.40;;;8.23;;
51252;SDS011;38936;47.808;19.936;2022-10-15T09:17:00;11.40;;;8.35;;
51252;SDS011;38936;47.808;19.936;2022-10-15T09:19:30;13.10;;;8.10;;
51252;SDS011;38936;47.808;19.936;2022-10-15T09:21:59;15.77;;;8.43;;
51252;SDS011;38936;47.808;19.936;2022-10-15T09:24:27;15.60;;;7.03;;
51252;SDS011;38936;47.808;19.936;2022-10-15T09:32:50;17.58;;;8.35;;
51252;SDS011;38936;47.808;19.936;2022-10-15T09:35:30;15.15;;;7.85;;
51252;SDS011;38936;47.808;19.936;2022-10-15T09:43:26;16.83;;;8.73;;
51252;SDS011;38936;47.808;19.936;2022-10-15T09:45:59;13.52;;;8.57;;
51252;SDS011;38936;47.808;19.936;2022-10-15T09:48:25;21.70;;;8.63;;
51252;SDS011;38936;47.808;19.936;2022-10-15T09:50:56;12.18;;;7.50;;
51252;SDS011;38936;47.808;19.936;2022-10-15T09:56:17;14.90;;;7.70;;
51252;SDS011;38936;47.808;19.936;2022-10-15T09:58:55;17.67;;;8.82;;
51252;SDS011;38936;47.808;19.936;2022-10-15T10:01:26;15.00;;;8.95;;
51252;SDS011;38936;47.808;19.936;2022-10-15T10:04:02;16.35;;;8.82;;
51252;SDS011;38936;47.808;19.936;2022-10-15T10:09:24;14.48;;;8.30;;
51252;SDS011;38936;47.808;19.936;2022-10-15T10:11:57;22.85;;;9.27;;
51252;SDS011;38936;47.808;19.936;2022-10-15T10:14:33;18.05;;;9.02;;
51252;SDS011;38936;47.808;19.936;2022-10-15T10:17:06;12.25;;;8.32;;
51252;SDS011;38936;47.808;19.936;2022-10-15T10:19:32;18.27;;;10.77;;
51252;SDS011;38936;47.808;19.936;2022-10-15T10:22:06;17.48;;;9.45;;
51252;SDS011;38936;47.808;19.936;2022-10-15T10:24:41;16.77;;;8.18;;
51252;SDS011;38936;47.808;19.936;2022-10-15T10:27:20;22.73;;;8.98;;
51252;SDS011;38936;47.808;19.936;2022-10-15T10:30:12;17.83;;;9.10;;
51252;SDS011;38936;47.808;19.936;2022-10-15T10:32:37;13.93;;;7.85;;
51252;SDS011;38936;47.808;19.936;2022-10-15T10:35:03;14.85;;;8.18;;
51252;SDS011;38936;47.808;19.936;2022-10-15T10:37:39;11.90;;;7.40;;
51252;SDS011;38936;47.808;19.936;2022-10-15T10:40:18;13.07;;;7.88;;
51252;SDS011;38936;47.808;19.936;2022-10-15T10:46:01;11.35;;;6.75;;
51252;SDS011;38936;47.808;19.936;2022-10-15T10:48:28;13.45;;;7.72;;
51252;SDS011;38936;47.808;19.936;2022-10-15T10:51:08;10.43;;;6.50;;
51252;SDS011;38936;47.808;19.936;2022-10-15T10:53:36;14.10;;;6.15;;
51252;SDS011;38936;47.808;19.936;2022-10-15T10:56:33;9.13;;;5.20;;
51252;SDS011;38936;47.808;19.936;2022-10-15T11:01:54;13.57;;;6.28;;
51252;SDS011;38936;47.808;19.936;2022-10-15T11:04:24;10.40;;;5.40;;
51252;SDS011;38936;47.808;19.936;2022-10-15T11:07:04;13.75;;;6.03;;
51252;SDS011;38936;47.808;19.936;2022-10-15T11:09:42;16.25;;;6.82;;
51252;SDS011;38936;47.808;19.936;2022-10-15T11:14:53;12.82;;;5.47;;
51252;SDS011;38936;47.808;19.936;2022-10-15T11:17:46;10.98;;;4.30;;
51252;SDS011;38936;47.808;19.936;2022-10-15T11:45:26;8.48;;;3.40;;
51252;SDS011;38936;47.808;19.936;2022-10-15T11:48:12;6.90;;;3.85;;
51252;SDS011;38936;47.808;19.936;2022-10-15T11:50:46;6.65;;;3.60;;
51252;SDS011;38936;47.808;19.936;2022-10-15T11:56:22;7.13;;;3.30;;
51252;SDS011;38936;47.808;19.936;2022-10-15T12:01:53;7.88;;;3.28;;
51252;SDS011;38936;47.808;19.936;2022-10-15T12:04:41;15.75;;;3.85;;
51252;SDS011;38936;47.808;19.936;2022-10-15T12:07:15;6.82;;;4.10;;
51252;SDS011;38936;47.808;19.936;2022-10-15T12:09:47;17.23;;;3.95;;
51252;SDS011;38936;47.808;19.936;2022-10-15T12:12:23;8.88;;;3.55;;
51252;SDS011;38936;47.808;19.936;2022-10-15T12:18:49;10.20;;;3.80;;
51252;SDS011;38936;47.808;19.936;2022-10-15T12:20:53;13.02;;;4.10;;
51252;SDS011;38936;47.808;19.936;2022-10-15T12:23:38;13.40;;;4.03;;
51252;SDS011;38936;47.808;19.936;2022-10-15T12:28:51;10.23;;;3.15;;
51252;SDS011;38936;47.808;19.936;2022-10-15T12:31:19;8.75;;;3.17;;
51252;SDS011;38936;47.808;19.936;2022-10-15T12:33:46;9.80;;;3.78;;
51252;SDS011;38936;47.808;19.936;2022-10-15T12:38:59;6.97;;;3.47;;
51252;SDS011;38936;47.808;19.936;2022-10-15T12:41:37;6.72;;;2.65;;
51252;SDS011;38936;47.808;19.936;2022-10-15T12:44:07;6.85;;;3.92;;
51252;SDS011;38936;47.808;19.936;2022-10-15T12:46:44;9.40;;;3.15;;
51252;SDS011;38936;47.808;19.936;2022-10-15T12:51:54;12.20;;;3.28;;
51252;SDS011;38936;47.808;19.936;2022-10-15T12:59:58;7.57;;;3.70;;
51252;SDS011;38936;47.808;19.936;2022-10-15T13:04:59;7.07;;;3.22;;
51252;SDS011;38936;47.808;19.936;2022-10-15T13:07:25;7.75;;;2.95;;
51252;SDS011;38936;47.808;19.936;2022-10-15T13:09:51;4.55;;;2.80;;
51252;SDS011;38936;47.808;19.936;2022-10-15T13:12:21;12.98;;;3.10;;
51252;SDS011;38936;47.808;19.936;2022-10-15T13:14:58;6.57;;;3.13;;
51252;SDS011;38936;47.808;19.936;2022-10-15T13:17:31;12.30;;;3.55;;
51252;SDS011;38936;47.808;19.936;2022-10-15T13:20:02;9.90;;;4.10;;
51252;SDS011;38936;47.808;19.936;2022-10-15T13:22:33;9.68;;;3.65;;
51252;SDS011;38936;47.808;19.936;2022-10-15T13:24:59;13.55;;;3.25;;
51252;SDS011;38936;47.808;19.936;2022-10-15T13:30:17;15.38;;;3.20;;
51252;SDS011;38936;47.808;19.936;2022-10-15T13:32:44;9.27;;;3.63;;
51252;SDS011;38936;47.808;19.936;2022-10-15T13:35:17;8.52;;;3.05;;
51252;SDS011;38936;47.808;19.936;2022-10-15T13:37:53;16.90;;;3.30;;
51252;SDS011;38936;47.808;19.936;2022-10-15T13:40:21;7.22;;;3.10;;
51252;SDS011;38936;47.808;19.936;2022-10-15T13:43:02;5.78;;;3.00;;
51252;SDS011;38936;47.808;19.936;2022-10-15T13:45:32;8.35;;;4.43;;
51252;SDS011;38936;47.808;19.936;2022-10-15T13:47:58;18.55;;;7.65;;
51252;SDS011;38936;47.808;19.936;2022-10-15T13:50:27;11.95;;;6.38;;
51252;SDS011;38936;47.808;19.936;2022-10-15T13:53:14;9.35;;;3.45;;
51252;SDS011;38936;47.808;19.936;2022-10-15T13:55:48;5.03;;;3.30;;
51252;SDS011;38936;47.808;19.936;2022-10-15T13:58:34;5.75;;;3.45;;
51252;SDS011;38936;47.808;19.936;2022-10-15T14:01:12;5.70;;;3.40;;
51252;SDS011;38936;47.808;19.936;2022-10-15T14:03:56;8.43;;;2.97;;
51252;SDS011;38936;47.808;19.936;2022-10-15T14:06:26;14.05;;;3.85;;
51252;SDS011;38936;47.808;19.936;2022-10-15T14:11:42;10.32;;;3.60;;
51252;SDS011;38936;47.808;19.936;2022-10-15T14:16:55;9.13;;;3.40;;
51252;SDS011;38936;47.808;19.936;2022-10-15T14:19:22;9.80;;;3.50;;
51252;SDS011;38936;47.808;19.936;2022-10-15T14:21:54;7.07;;;3.30;;
51252;SDS011;38936;47.808;19.936;2022-10-15T14:24:42;12.73;;;3.88;;
51252;SDS011;38936;47.808;19.936;2022-10-15T14:27:13;15.60;;;5.70;;
51252;SDS011;38936;47.808;19.936;2022-10-15T14:29:42;12.68;;;3.67;;
51252;SDS011;38936;47.808;19.936;2022-10-15T14:34:45;15.77;;;4.22;;
51252;SDS011;38936;47.808;19.936;2022-10-15T14:42:36;12.88;;;4.30;;
51252;SDS011;38936;47.808;19.936;2022-10-15T14:45:19;8.70;;;3.78;;
51252;SDS011;38936;47.808;19.936;2022-10-15T14:47:50;5.97;;;3.80;;
51252;SDS011;38936;47.808;19.936;2022-10-15T14:50:33;8.48;;;3.95;;
51252;SDS011;38936;47.808;19.936;2022-10-15T14:53:04;7.95;;;4.45;;
51252;SDS011;38936;47.808;19.936;2022-10-15T14:55:33;10.18;;;5.35;;
51252;SDS011;38936;47.808;19.936;2022-10-15T14:58:07;17.65;;;6.88;;
51252;SDS011;38936;47.808;19.936;2022-10-15T15:00:42;14.50;;;6.97;;
51252;SDS011;38936;47.808;19.936;2022-10-15T15:03:12;12.55;;;9.32;;
51252;SDS011;38936;47.808;19.936;2022-10-15T15:05:51;10.77;;;7.57;;
51252;SDS011;38936;47.808;19.936;2022-10-15T15:08:19;14.63;;;8.82;;
51252;SDS011;38936;47.808;19.936;2022-10-15T15:10:48;30.60;;;22.27;;
51252;SDS011;38936;47.808;19.936;2022-10-15T15:13:20;48.55;;;29.92;;
51252;SDS011;38936;47.808;19.936;2022-10-15T15:15:47;48.75;;;37.72;;
51252;SDS011;38936;47.808;19.936;2022-10-15T15:18:13;31.92;;;22.80;;
51252;SDS011;38936;47.808;19.936;2022-10-15T15:20:40;25.17;;;16.38;;
51252;SDS011;38936;47.808;19.936;2022-10-15T15:23:08;23.25;;;13.75;;
51252;SDS011;38936;47.808;19.936;2022-10-15T15:25:38;20.60;;;10.05;;
51252;SDS011;38936;47.808;19.936;2022-10-15T15:28:05;25.70;;;11.75;;
51252;SDS011;38936;47.808;19.936;2022-10-15T15:30:35;24.35;;;14.05;;
51252;SDS011;38936;47.808;19.936;2022-10-15T15:33:07;26.02;;;17.35;;
51252;SDS011;38936;47.808;19.936;2022-10-15T15:38:08;24.20;;;16.63;;
51252;SDS011;38936;47.808;19.936;2022-10-15T15:40:35;37.80;;;25.58;;
51252;SDS011;38936;47.808;19.936;2022-10-15T15:43:01;40.58;;;29.95;;
51252;SDS011;38936;47.808;19.936;2022-10-15T15:45:27;26.33;;;20.02;;
51252;SDS011;38936;47.808;19.936;2022-10-15T15:47:54;20.05;;;10.43;;
51252;SDS011;38936;47.808;19.936;2022-10-15T15:50:22;17.55;;;11.98;;
51252;SDS011;38936;47.808;19.936;2022-10-15T15:52:48;15.02;;;9.75;;
51252;SDS011;38936;47.808;19.936;2022-10-15T15:55:15;11.93;;;7.20;;
51252;SDS011;38936;47.808;19.936;2022-10-15T15:57:41;21.73;;;8.82;;
51252;SDS011;38936;47.808;19.936;2022-10-15T16:00:07;20.30;;;12.27;;
51252;SDS011;38936;47.808;19.936;2022-10-15T16:02:34;16.75;;;11.10;;
51252;SDS011;38936;47.808;19.936;2022-10-15T16:05:00;17.75;;;9.15;;
51252;SDS011;38936;47.808;19.936;2022-10-15T16:07:26;16.35;;;10.50;;
51252;SDS011;38936;47.808;19.936;2022-10-15T16:09:53;14.93;;;8.52;;
51252;SDS011;38936;47.808;19.936;2022-10-15T16:12:18;17.30;;;6.38;;
51252;SDS011;38936;47.808;19.936;2022-10-15T16:14:44;8.77;;;5.60;;
51252;SDS011;38936;47.808;19.936;2022-10-15T16:17:09;9.27;;;5.20;;
51252;SDS011;38936;47.808;19.936;2022-10-15T16:19:35;11.07;;;5.10;;
51252;SDS011;38936;47.808;19.936;2022-10-15T16:22:01;9.90;;;6.30;;
51252;SDS011;38936;47.808;19.936;2022-10-15T16:24:26;10.15;;;5.32;;
51252;SDS011;38936;47.808;19.936;2022-10-15T16:26:52;9.73;;;5.10;;
51252;SDS011;38936;47.808;19.936;2022-10-15T16:29:18;21.58;;;5.32;;
51252;SDS011;38936;47.808;19.936;2022-10-15T16:34:09;13.70;;;8.57;;
51252;SDS011;38936;47.808;19.936;2022-10-15T16:36:34;20.40;;;15.43;;
51252;SDS011;38936;47.808;19.936;2022-10-15T16:39:00;28.17;;;13.98;;
51252;SDS011;38936;47.808;19.936;2022-10-15T16:41:26;12.98;;;9.15;;
51252;SDS011;38936;47.808;19.936;2022-10-15T16:43:51;11.32;;;6.40;;
51252;SDS011;38936;47.808;19.936;2022-10-15T16:46:17;14.65;;;7.90;;
51252;SDS011;38936;47.808;19.936;2022-10-15T16:48:44;21.60;;;11.93;;
51252;SDS011;38936;47.808;19.936;2022-10-15T16:51:14;18.08;;;9.82;;
51252;SDS011;38936;47.808;19.936;2022-10-15T16:53:41;15.23;;;8.43;;
51252;SDS011;38936;47.808;19.936;2022-10-15T16:56:09;18.67;;;12.18;;
51252;SDS011;38936;47.808;19.936;2022-10-15T16:58:38;17.75;;;9.77;;
51252;SDS011;38936;47.808;19.936;2022-10-15T17:01:05;15.50;;;7.22;;
51252;SDS011;38936;47.808;19.936;2022-10-15T17:03:33;12.82;;;6.07;;
51252;SDS011;38936;47.808;19.936;2022-10-15T17:06:00;11.38;;;7.38;;
51252;SDS011;38936;47.808;19.936;2022-10-15T17:08:30;24.42;;;12.27;;
51252;SDS011;38936;47.808;19.936;2022-10-15T17:11:22;22.75;;;9.52;;
51252;SDS011;38936;47.808;19.936;2022-10-15T17:13:50;14.70;;;7.07;;
51252;SDS011;38936;47.808;19.936;2022-10-15T17:16:18;10.88;;;5.55;;
51252;SDS011;38936;47.808;19.936;2022-10-15T17:18:44;14.57;;;4.90;;
51252;SDS011;38936;47.808;19.936;2022-10-15T17:21:11;8.13;;;4.40;;
51252;SDS011;38936;47.808;19.936;2022-10-15T17:23:39;9.60;;;5.50;;
51252;SDS011;38936;47.808;19.936;2022-10-15T17:26:07;16.30;;;5.50;;
51252;SDS011;38936;47.808;19.936;2022-10-15T17:28:34;14.70;;;5.90;;
51252;SDS011;38936;47.808;19.936;2022-10-15T17:31:01;12.15;;;5.60;;
51252;SDS011;38936;47.808;19.936;2022-10-15T17:33:32;10.50;;;5.30;;
51252;SDS011;38936;47.808;19.936;2022-10-15T17:36:05;10.73;;;4.75;;
51252;SDS011;38936;47.808;19.936;2022-10-15T17:38:32;14.55;;;5.18;;
51252;SDS011;38936;47.808;19.936;2022-10-15T17:40:59;12.75;;;5.70;;
51252;SDS011;38936;47.808;19.936;2022-10-15T17:43:29;8.80;;;4.80;;
51252;SDS011;38936;47.808;19.936;2022-10-15T17:48:24;14.48;;;8.60;;
51252;SDS011;38936;47.808;19.936;2022-10-15T17:53:15;26.95;;;12.23;;
51252;SDS011;38936;47.808;19.936;2022-10-15T17:55:41;20.77;;;10.88;;
51252;SDS011;38936;47.808;19.936;2022-10-15T17:58:07;15.68;;;9.35;;
51252;SDS011;38936;47.808;19.936;2022-10-15T18:00:32;13.38;;;7.43;;
51252;SDS011;38936;47.808;19.936;2022-10-15T18:02:58;18.48;;;7.93;;
51252;SDS011;38936;47.808;19.936;2022-10-15T18:05:23;26.98;;;8.85;;
51252;SDS011;38936;47.808;19.936;2022-10-15T18:07:49;16.63;;;10.27;;
51252;SDS011;38936;47.808;19.936;2022-10-15T18:12:40;15.07;;;8.63;;
51252;SDS011;38936;47.808;19.936;2022-10-15T18:15:06;18.98;;;10.25;;
51252;SDS011;38936;47.808;19.936;2022-10-15T18:17:32;15.38;;;9.88;;
51252;SDS011;38936;47.808;19.936;2022-10-15T18:22:23;12.88;;;7.65;;
51252;SDS011;38936;47.808;19.936;2022-10-15T18:27:15;20.55;;;10.50;;
51252;SDS011;38936;47.808;19.936;2022-10-15T18:29:40;21.70;;;11.73;;
51252;SDS011;38936;47.808;19.936;2022-10-15T18:32:06;21.00;;;11.95;;
51252;SDS011;38936;47.808;19.936;2022-10-15T18:36:58;20.95;;;10.02;;
51252;SDS011;38936;47.808;19.936;2022-10-15T18:39:24;24.77;;;9.32;;
51252;SDS011;38936;47.808;19.936;2022-10-15T18:41:50;18.45;;;10.13;;
51252;SDS011;38936;47.808;19.936;2022-10-15T18:46:42;19.73;;;10.10;;
51252;SDS011;38936;47.808;19.936;2022-10-15T18:49:09;25.00;;;10.88;;
51252;SDS011;38936;47.808;19.936;2022-10-15T18:51:36;22.67;;;11.38;;
51252;SDS011;38936;47.808;19.936;2022-10-15T18:54:02;26.52;;;12.48;;
51252;SDS011;38936;47.808;19.936;2022-10-15T18:56:28;24.73;;;11.68;;
51252;SDS011;38936;47.808;19.936;2022-10-15T19:01:24;19.17;;;12.05;;